Flight Track Log - Related Links

Times and Time Zones

All times are in EDT time to prevent confusion due to time zone crossing. See the ASQ5539 flight status page for this flight to view local times or setup timezone preferences in your user account.

Time Position Orientation Groundspeed Altitude Reporting Facility
EDT Latitude Longitude Course Direction KTS MPH feet Rate Location/Type
Wed 06:28:15 PM 33.6333 -84.3667 202° Southwest 203 234 2,500  Level Atlanta TRACON
Wed 06:29:15 PM 33.6000 -84.2833 116° Southeast 269 310 4,700 2,476 Climbing Atlanta TRACON
Wed 06:30:21 PM 33.5000 -84.2833 180° South 281 323 7,700 2,667 Climbing Atlanta TRACON
Wed 06:31:21 PM 33.4333 -84.2833 180° South 287 330 10,300 1,457 Climbing Atlanta TRACON
Wed 06:32:41 PM 33.3283 -84.3397 204° Southwest 331 381 11,100 986 Climbing Atlanta Center
Wed 06:33:00 PM 33.3459 -84.3166 202° Southwest  Level FlightAware Approximate
Wed 06:33:41 PM 33.2322 -84.3814 200° South 361 415 12,600  Level Atlanta Center
Wed 06:34:41 PM 33.1361 -84.4258 201° Southwest 373 429 14,100 1,550 Climbing Atlanta Center
Wed 06:35:41 PM 33.0378 -84.4725 202° Southwest 378 435 15,700 1,400 Climbing Atlanta Center
Wed 06:36:41 PM 32.9481 -84.5067 198° South 378 435 16,900 1,400 Climbing Atlanta Center
Wed 06:37:41 PM 32.8247 -84.5208 186° South 373 429 18,500 1,450 Climbing Atlanta Center
Wed 06:38:41 PM 32.7308 -84.5303 185° South 373 429 19,800 1,150 Climbing Atlanta Center
Wed 06:39:41 PM 32.6244 -84.5419 185° South 373 429 20,800 1,000 Climbing Atlanta Center
Wed 06:40:41 PM 32.5219 -84.5511 184° South 373 429 21,800 1,000 Climbing Atlanta Center
Wed 06:41:41 PM 32.4133 -84.5631 185° South 386 444 22,800 1,000 Climbing Atlanta Center
Wed 06:42:41 PM 32.3069 -84.5819 189° South 391 450 23,800 1,000 Climbing Atlanta Center
Wed 06:43:41 PM 32.2314 -84.6675 224° Southwest 356 410 24,800 1,000 Climbing Atlanta Center
Wed 06:44:41 PM 32.1661 -84.7650 232° Southwest 363 418 25,800 600 Climbing Atlanta Center
Wed 06:45:41 PM 32.0986 -84.8628 231° Southwest 381 438 26,000 100 Climbing Atlanta Center
Wed 06:46:41 PM 32.0292 -84.9625 231° Southwest 394 453 26,000  Level Atlanta Center
Wed 06:47:41 PM 31.9594 -85.0694 232° Southwest 407 468 26,000 -163 Level Atlanta Center
Wed 06:49:08 PM 31.8486 -85.2208 229° Southwest 406 467 25,600 -612 Descending Jacksonville Center
Wed 06:50:08 PM 31.7692 -85.3386 232° Southwest 438 504 24,500 -800 Descending Jacksonville Center
Wed 06:51:08 PM 31.6897 -85.4514 230° Southwest 454 522 24,000 -250 Descending Jacksonville Center
Wed 06:52:08 PM 31.6122 -85.5639 231° Southwest 454 522 24,000  Level Jacksonville Center
Wed 06:53:08 PM 31.5369 -85.6714 231° Southwest 448 516 24,000  Level Jacksonville Center
Wed 06:54:08 PM 31.4614 -85.7786 230° Southwest 443 510 24,000 -400 Level Jacksonville Center
Wed 06:55:08 PM 31.3772 -85.8953 230° Southwest 438 504 23,200 -900 Descending Jacksonville Center
Wed 06:56:08 PM 31.3017 -86.0072 232° Southwest 438 504 22,200 -1,150 Descending Jacksonville Center
Wed 06:57:08 PM 31.2300 -86.1092 231° Southwest 438 504 20,900 -1,950 Descending Jacksonville Center
Wed 06:58:08 PM 31.1628 -86.2064 231° Southwest 417 480 18,300 1,550 Descending Jacksonville Center
Wed 06:59:08 PM 31.0978 -86.2964 230° Southwest 394 453 24,000 -2,600 Climbing Jacksonville Center
Wed 07:00:08 PM 31.0328 -86.3861 230° Southwest 384 442 13,100 -6,500 Descending Jacksonville Center
Wed 07:01:08 PM 30.9678 -86.4758 230° Southwest 370 426 11,000 -1,650 Descending Jacksonville Center
Wed 07:02:08 PM 30.8878 -86.4944 191° South 295 339 9,800 -1,900 Descending Jacksonville Center
Wed 07:03:08 PM 30.8133 -86.4722 166° South 272 313 7,200 -2,824 Descending Jacksonville Center
Wed 07:04:07 PM 30.7344 -86.4597 172° South 272 313 4,200 -2,521 Descending Jacksonville Center
Wed 07:05:07 PM 30.6653 -86.4644 183° South 272 313 2,200 -1,140 Descending Jacksonville Center
Wed 07:06:08 PM 30.6042 -86.4814 193° South 250 288 1,900 -545 Descending Jacksonville Center
Wed 07:07:08 PM 30.5539 -86.4939 192° South 212 244 1,100 -800 Descending Jacksonville Center
Wed 07:09:00 PM 30.4832 -86.5260 198° South  Level Estimated
Wed 07:16:00 PM 30.4832 -86.5260 198° South  Level Estimated

Login

Don't have an account? Register now (free) for customized features, flight alerts, and more!